map of MYP home
MYP - Airport
Location
City:  Mary, Mary, Turkmenistan
Name:Mary International Airport
ICAO:UTAM
IATA:MYP

Details
Type:Airport (Aerodrome, Airfield)
Use:Public/Civil, International (customs port of entry)
Latitude:3737'18"N (37.621667)
Longitude:6153'48"E (61.896667)
Elevation:728 ft (222 m)
Variation:4.77E (WMM2015v2 magnetic declination)
0.07 annual change
Runways:2
Longest:12467 × 148 ft (3800 × 45 m), paved

Time
Time Zone:UTC+5
Local Time:

Weather
METAR:UTAM 041300Z 32014G24KT 9999 OVC030 05/01 Q1023 NOSIG

Related Locations
Nearby:
Farthest:IPC: 11554 mi / 18595 km
Easter Island (Isla de Pascua, Rapa Nui) [Mataveri Intl], VS, CL

Find:

   beyond  
but within

Other Information
Maps:
NOTAMs:
Links:
Sources:

  
  • flag of Turkmenistan
  

Airport Diagram

Airport diagram for MYP

Airport diagram PDF from AIP of the Russian Federation

Sectional Chart

Flight Planning
at skyvector.com

Satellite Image

Google Maps Satellite view

Yandex Maps Satellite view


 

Copyright © 2004-2019 Karl L. Swartz. All rights reserved.
The Great Circle Mapper name and logo are trademarks of the Great Circle Mapper.
All other trademarks mentioned herein belong to their respective owners.
Please see credits for attibutions and further copyright information.

  Follow gcmap on Facebook Follow gcmap on Twitter GCmap on LinkedIn

hCard Microformat

Geo Microformat